Time;durP1;ratioP1;P1;durP2;ratioP2;P2;SDS_P1;SDS_P2;PMS_P1;PMS_P2;Temp;Humidity;BMP_temperature;BMP_pressure;BME280_temperature;BME280_humidity;BME280_pressure;Samples;Min_cycle;Max_cycle;Signal;HPM_P1;HPM_P2
2023/08/12 00:00:11;;;;;;;;;3.75;3.75;;;;;22.76;87.21;101405.69;4956416;28;45263;-73
2023/08/12 00:02:37;;;;;;;;;4.00;4.00;;;;;22.77;87.05;101399.28;4958188;28;45448;-73
2023/08/12 00:05:03;;;;;;;;;3.50;3.50;;;;;22.61;87.12;101374.19;4970136;28;47329;-73
2023/08/12 00:07:29;;;;;;;;;5.00;5.00;;;;;22.84;86.96;101416.88;4959640;28;45343;-73
2023/08/12 00:09:55;;;;;;;;;3.50;3.00;;;;;22.69;87.34;101386.22;4959399;28;45444;-73
2023/08/12 00:12:21;;;;;;;;;3.50;3.50;;;;;22.69;87.37;101377.19;4958880;28;45545;-73
2023/08/12 00:14:47;;;;;;;;;5.50;4.00;;;;;22.84;87.73;101406.00;4959075;28;45462;-73
2023/08/12 00:17:12;;;;;;;;;3.75;3.75;;;;;22.79;87.43;101393.69;4963988;28;45370;-72
2023/08/12 00:19:37;;;;;;;;;2.00;2.00;;;;;22.66;87.66;101370.13;4974208;28;45483;-73
2023/08/12 00:22:04;;;;;;;;;5.75;4.50;;;;;22.65;87.71;101359.34;4976764;28;45318;-73
2023/08/12 00:24:30;;;;;;;;;5.50;4.50;;;;;22.76;87.49;101384.78;4978515;28;46052;-73
2023/08/12 00:26:55;;;;;;;;;4.50;4.00;;;;;22.80;87.69;101381.84;4978384;28;45341;-73
2023/08/12 00:29:21;;;;;;;;;3.75;3.25;;;;;22.72;87.71;101369.69;4978696;28;45489;-73
2023/08/12 00:31:46;;;;;;;;;3.50;3.50;;;;;22.66;87.67;101355.66;4978322;28;45386;-72
2023/08/12 00:34:12;;;;;;;;;4.25;3.25;;;;;22.70;87.71;101359.88;5019667;28;45654;-73
2023/08/12 00:36:37;;;;;;;;;5.00;3.50;;;;;22.74;87.97;101364.13;4970343;28;45453;-73
2023/08/12 00:39:03;;;;;;;;;3.50;2.00;;;;;22.75;87.64;101355.84;4965281;28;45345;-73
2023/08/12 00:41:29;;;;;;;;;4.50;4.00;;;;;22.68;88.14;101354.53;4958694;28;45595;-72
2023/08/12 00:43:54;;;;;;;;;4.00;4.00;;;;;22.68;87.93;101359.13;4958908;28;45537;-72
2023/08/12 00:46:20;;;;;;;;;3.75;3.75;;;;;22.86;87.82;101382.25;4958704;28;45475;-72
2023/08/12 00:48:45;;;;;;;;;5.75;4.00;;;;;22.69;88.02;101355.44;4969851;28;45386;-73
2023/08/12 00:51:11;;;;;;;;;3.00;3.00;;;;;22.86;88.06;101384.13;4960585;28;45547;-73
2023/08/12 00:53:37;;;;;;;;;3.75;3.75;;;;;22.66;88.28;101347.50;4958764;28;45443;-72
2023/08/12 00:56:03;;;;;;;;;4.50;4.50;;;;;22.74;87.92;101375.00;4958558;28;45526;-73
2023/08/12 00:58:29;;;;;;;;;4.00;4.00;;;;;22.63;88.41;101353.16;4968136;28;45244;-72
2023/08/12 01:00:55;;;;;;;;;2.25;2.25;;;;;22.62;88.48;101359.56;4960513;28;45346;-72
2023/08/12 01:03:21;;;;;;;;;4.75;4.00;;;;;22.62;88.62;101355.00;4958351;28;45419;-72
2023/08/12 01:05:47;;;;;;;;;5.25;4.00;;;;;22.64;89.12;101365.78;4958246;28;45525;-72
2023/08/12 01:08:12;;;;;;;;;5.00;5.00;;;;;22.54;88.51;101343.81;4958763;28;45436;-73
2023/08/12 01:10:42;;;;;;;;;4.75;3.00;;;;;22.70;89.02;101368.03;4974805;28;45665;-73
2023/08/12 01:13:27;;;;;;;;;6.00;3.50;;;;;22.75;89.12;101371.28;4972175;28;48178;-72
2023/08/12 01:15:55;;;;;;;;;4.75;3.75;;;;;22.44;89.60;101305.53;4964439;28;45709;-72
2023/08/12 01:18:23;;;;;;;;;4.00;4.00;;;;;22.53;89.05;101334.78;4975395;28;45276;-72
2023/08/12 01:20:49;;;;;;;;;6.00;4.75;;;;;22.72;89.41;101369.69;4977752;28;45445;-73
2023/08/12 01:23:15;;;;;;;;;4.00;4.00;;;;;22.65;89.50;101356.63;4976255;28;48472;-73
2023/08/12 01:25:42;;;;;;;;;4.00;4.00;;;;;22.64;89.93;101352.19;4977835;28;45426;-73
2023/08/12 01:28:08;;;;;;;;;5.75;4.00;;;;;22.73;89.86;101370.53;4977762;28;45440;-73
2023/08/12 01:30:49;;;;;;;;;6.00;4.25;;;;;22.54;90.36;101335.66;4977795;28;45332;-73
2023/08/12 01:33:39;;;;;;;;;5.50;3.00;;;;;22.75;90.12;101376.72;4977895;28;45505;-73
2023/08/12 01:36:17;;;;;;;;;4.25;4.00;;;;;22.55;90.55;101348.25;4995123;27;45446;-72
2023/08/12 01:38:44;;;;;;;;;5.50;4.00;;;;;22.55;90.55;101346.44;4958247;28;45415;-73
2023/08/12 01:41:11;;;;;;;;;4.75;4.75;;;;;22.66;90.77;101361.09;4969919;28;46110;-73
2023/08/12 01:43:37;;;;;;;;;3.25;3.25;;;;;22.55;91.12;101335.56;4965342;28;48547;-73
2023/08/12 01:46:03;;;;;;;;;2.75;2.75;;;;;22.66;90.73;101361.97;4962180;28;45489;-73
2023/08/12 01:48:28;;;;;;;;;3.25;3.25;;;;;22.62;90.95;101354.13;4958164;28;45294;-73
2023/08/12 01:50:54;;;;;;;;;2.50;2.00;;;;;22.49;91.12;101327.84;4957874;28;45536;-73
2023/08/12 01:53:19;;;;;;;;;2.75;2.50;;;;;22.46;91.12;101332.63;4958062;28;45449;-73
2023/08/12 01:55:45;;;;;;;;;2.25;2.00;;;;;22.43;91.04;101322.84;4957914;28;45311;-73
2023/08/12 01:58:10;;;;;;;;;3.00;2.75;;;;;22.53;91.65;101337.50;4958185;28;45324;-73
2023/08/12 02:00:36;;;;;;;;;4.50;2.50;;;;;22.51;91.08;101330.44;4969628;28;45668;-73
2023/08/12 02:03:02;;;;;;;;;3.25;3.25;;;;;22.31;91.56;101291.09;4957729;28;45342;-73
2023/08/12 02:05:27;;;;;;;;;3.00;3.00;;;;;22.42;91.31;101309.34;4957759;28;45390;-73
2023/08/12 02:07:52;;;;;;;;;4.75;2.00;;;;;22.53;91.70;101331.19;4964611;28;45412;-73
2023/08/12 02:10:18;;;;;;;;;3.00;1.50;;;;;22.44;91.38;101318.28;4962749;28;45584;-73
2023/08/12 02:12:43;;;;;;;;;2.75;2.50;;;;;22.53;92.23;101334.78;4957500;28;46720;-73
2023/08/12 02:15:09;;;;;;;;;2.50;2.00;;;;;22.41;92.05;101315.78;4969502;28;45299;-73
2023/08/12 02:17:34;;;;;;;;;3.00;2.00;;;;;22.49;91.69;101336.00;4966002;28;45408;-73
2023/08/12 02:20:00;;;;;;;;;2.00;2.00;;;;;22.41;91.95;101327.53;4977025;28;45374;-73
2023/08/12 02:22:25;;;;;;;;;3.00;1.75;;;;;22.61;91.55;101349.69;4967214;28;46508;-73
2023/08/12 02:24:50;;;;;;;;;2.00;1.00;;;;;22.56;91.88;101334.56;4972285;28;45610;-73
2023/08/12 02:27:16;;;;;;;;;3.25;3.25;;;;;22.41;91.99;101310.34;4977257;28;45544;-73
2023/08/12 02:29:41;;;;;;;;;2.00;2.00;;;;;22.44;91.88;101310.97;4976955;28;45497;-73
2023/08/12 02:32:06;;;;;;;;;2.00;2.00;;;;;22.55;92.01;101341.00;4976867;28;46534;-73
2023/08/12 02:34:32;;;;;;;;;2.00;2.00;;;;;22.47;92.20;101320.75;5021124;28;45502;-73
2023/08/12 02:36:57;;;;;;;;;1.25;1.25;;;;;22.54;92.21;101332.94;4964269;28;45439;-74
2023/08/12 02:39:23;;;;;;;;;1.00;1.00;;;;;22.37;92.25;101307.84;4972252;28;45680;-73
2023/08/12 02:41:48;;;;;;;;;2.25;2.25;;;;;22.43;91.92;101313.81;4963921;28;46207;-73
2023/08/12 02:44:14;;;;;;;;;2.50;2.00;;;;;22.42;92.13;101298.47;4962233;28;45277;-73
2023/08/12 02:46:39;;;;;;;;;1.00;1.00;;;;;22.37;91.85;101291.53;4957648;28;45379;-73
2023/08/12 02:49:05;;;;;;;;;1.00;1.00;;;;;22.33;91.96;101291.84;4969002;28;45657;-74
2023/08/12 02:51:30;;;;;;;;;1.00;1.00;;;;;22.48;92.34;101317.91;4957008;28;46102;-74
2023/08/12 02:53:55;;;;;;;;;1.00;1.00;;;;;22.44;92.12;101313.72;4957199;28;45299;-73
2023/08/12 02:56:21;;;;;;;;;1.00;1.00;;;;;22.56;91.85;101329.09;4957483;28;45315;-73
2023/08/12 02:58:47;;;;;;;;;2.00;1.00;;;;;22.42;92.28;101293.03;4957176;28;45423;-73
2023/08/12 03:01:12;;;;;;;;;0.75;0.75;;;;;22.58;92.05;101323.56;4957129;28;45302;-74
2023/08/12 03:03:38;;;;;;;;;1.00;1.00;;;;;22.58;92.47;101324.41;4956823;28;45293;-74
2023/08/12 03:06:03;;;;;;;;;1.00;1.00;;;;;22.48;92.26;101307.03;4964803;28;45513;-73
2023/08/12 03:08:28;;;;;;;;;2.00;1.00;;;;;22.57;92.10;101319.13;4971818;28;45484;-73
2023/08/12 03:11:03;;;;;;;;;0.00;0.00;;;;;22.26;92.04;101268.78;4963648;28;46049;-73
2023/08/12 03:13:29;;;;;;;;;0.00;0.00;;;;;22.41;92.34;101291.31;4976056;28;45524;-73
2023/08/12 03:15:55;;;;;;;;;0.75;0.75;;;;;22.46;92.15;101306.28;4976643;28;45596;-73
2023/08/12 03:18:21;;;;;;;;;0.00;0.00;;;;;22.60;91.96;101324.31;4959343;28;45466;-74
2023/08/12 03:20:46;;;;;;;;;2.00;1.00;;;;;22.40;92.65;101287.69;4956590;28;45506;-74
2023/08/12 03:23:11;;;;;;;;;1.00;1.00;;;;;22.44;92.37;101296.53;4956664;28;45441;-74
2023/08/12 03:25:37;;;;;;;;;1.00;1.00;;;;;22.38;92.34;101286.94;4963571;28;45458;-74
2023/08/12 03:28:02;;;;;;;;;1.75;1.75;;;;;22.43;92.70;101294.78;4961945;28;45423;-74
2023/08/12 03:30:27;;;;;;;;;1.00;1.00;;;;;22.56;93.06;101320.94;4964199;28;47816;-74
2023/08/12 03:32:53;;;;;;;;;1.00;1.00;;;;;22.55;92.70;101313.78;4971426;28;45338;-74
2023/08/12 03:35:18;;;;;;;;;1.00;1.00;;;;;22.33;92.39;101270.09;5016109;28;45303;-74
2023/08/12 03:37:44;;;;;;;;;0.75;0.75;;;;;22.39;93.08;101283.25;4958575;28;45520;-74
2023/08/12 03:40:10;;;;;;;;;2.00;2.00;;;;;22.33;92.70;101270.09;4965468;28;47222;-74
2023/08/12 03:42:35;;;;;;;;;3.00;1.75;;;;;22.44;92.29;101291.94;4965417;28;45383;-74
2023/08/12 03:45:00;;;;;;;;;1.25;1.25;;;;;22.54;92.90;101312.03;4965461;28;45287;-74
2023/08/12 03:47:26;;;;;;;;;1.50;1.50;;;;;22.35;92.85;101273.56;4965353;28;45574;-74
2023/08/12 03:49:52;;;;;;;;;1.00;1.00;;;;;22.53;92.83;101304.84;4959617;28;46250;-74
2023/08/12 03:52:17;;;;;;;;;1.00;1.00;;;;;22.53;92.91;101298.53;4959283;28;45527;-74
2023/08/12 03:54:43;;;;;;;;;2.00;1.25;;;;;22.27;93.14;101259.63;4959747;28;45363;-74
2023/08/12 03:57:08;;;;;;;;;1.00;1.00;;;;;22.44;92.93;101280.22;4971058;28;45707;-74
2023/08/12 03:59:33;;;;;;;;;2.00;1.00;;;;;22.39;92.96;101275.09;4965059;28;46895;-74
2023/08/12 04:01:59;;;;;;;;;1.00;0.25;;;;;22.47;93.21;101296.28;4965592;28;45316;-74
2023/08/12 04:04:24;;;;;;;;;0.25;0.25;;;;;22.37;92.69;101277.06;4977496;28;45495;-74
2023/08/12 04:06:52;;;;;;;;;1.00;1.00;;;;;22.33;93.22;101267.38;4965698;28;45634;-74
2023/08/12 04:09:18;;;;;;;;;3.00;2.00;;;;;22.23;93.17;101247.25;4958001;28;46280;-74
2023/08/12 04:11:44;;;;;;;;;2.00;2.00;;;;;22.30;93.16;101271.22;4967586;28;45302;-74
2023/08/12 04:14:10;;;;;;;;;1.00;1.00;;;;;22.25;93.49;101254.31;4965925;28;45262;-74
2023/08/12 04:16:36;;;;;;;;;2.00;1.00;;;;;22.39;93.31;101264.22;4974997;28;45346;-74
2023/08/12 04:19:01;;;;;;;;;1.00;1.00;;;;;22.27;92.95;101246.94;4978488;28;46024;-74
2023/08/12 04:21:26;;;;;;;;;2.00;2.00;;;;;22.31;93.50;101248.47;4976977;28;45324;-74
2023/08/12 04:23:52;;;;;;;;;3.00;1.75;;;;;22.26;92.90;101242.47;4977430;28;45496;-74
2023/08/12 04:26:17;;;;;;;;;0.50;0.50;;;;;22.16;93.28;101228.66;4965404;28;45318;-74
2023/08/12 04:28:42;;;;;;;;;0.50;0.50;;;;;22.27;93.48;101240.59;4959044;28;46218;-74
2023/08/12 04:31:08;;;;;;;;;1.00;1.00;;;;;22.21;93.62;101229.19;4970588;28;45348;-74
2023/08/12 04:33:33;;;;;;;;;1.00;1.00;;;;;22.40;93.60;101260.50;4978460;28;45601;-74
2023/08/12 04:35:59;;;;;;;;;1.75;1.75;;;;;22.29;93.69;101244.13;4997545;27;45387;-74
2023/08/12 04:38:25;;;;;;;;;1.75;1.75;;;;;22.30;93.70;101232.25;4964314;28;46251;-74
2023/08/12 04:40:53;;;;;;;;;2.75;1.25;;;;;22.18;93.62;101220.41;4973585;28;45393;-74
2023/08/12 04:43:18;;;;;;;;;1.25;1.00;;;;;22.41;93.71;101258.66;4964606;28;45473;-74
2023/08/12 04:45:47;;;;;;;;;1.75;1.00;;;;;22.42;94.16;101264.00;4964947;28;45435;-74
2023/08/12 04:48:13;;;;;;;;;3.00;2.00;;;;;22.22;94.07;101227.38;4957488;28;46560;-75
2023/08/12 04:50:39;;;;;;;;;1.00;1.00;;;;;22.28;93.61;101240.53;4958509;28;45350;-74
2023/08/12 04:53:05;;;;;;;;;2.00;1.00;;;;;22.42;93.36;101265.81;4958855;28;45403;-74
2023/08/12 04:55:31;;;;;;;;;1.25;1.25;;;;;22.20;93.73;101232.03;4958730;28;45456;-74
2023/08/12 04:57:57;;;;;;;;;2.25;2.00;;;;;22.19;93.99;101233.88;4966182;28;46575;-74
2023/08/12 05:00:23;;;;;;;;;1.25;1.00;;;;;22.34;94.21;101260.97;4975817;28;45935;-74
2023/08/12 05:02:49;;;;;;;;;2.00;2.00;;;;;22.37;94.19;101256.16;4958711;28;45402;-74
2023/08/12 05:05:14;;;;;;;;;3.00;1.50;;;;;22.38;94.29;101257.03;4970414;28;45576;-74
2023/08/12 05:07:40;;;;;;;;;1.00;1.00;;;;;22.34;94.18;101255.53;4964522;28;47054;-74
2023/08/12 05:10:05;;;;;;;;;1.00;1.00;;;;;22.11;93.86;101222.69;4964258;28;45314;-74
2023/08/12 05:12:31;;;;;;;;;0.75;0.75;;;;;22.18;93.95;101223.13;4958445;28;45446;-74
2023/08/12 05:14:56;;;;;;;;;1.25;1.25;;;;;22.17;93.96;101226.84;4958306;28;45624;-74
2023/08/12 05:17:22;;;;;;;;;1.00;1.00;;;;;22.16;94.12;101228.66;4965223;28;47051;-74
2023/08/12 05:19:47;;;;;;;;;1.25;1.25;;;;;22.35;94.65;101262.69;4992947;27;45338;-74
2023/08/12 05:22:13;;;;;;;;;2.00;2.00;;;;;22.27;94.70;101251.47;4977759;28;45753;-74
2023/08/12 05:24:38;;;;;;;;;1.00;1.00;;;;;22.30;94.70;101256.72;4977759;28;45367;-74
2023/08/12 05:27:04;;;;;;;;;1.00;1.00;;;;;22.28;94.61;101261.38;4976465;28;46916;-74
2023/08/12 05:29:30;;;;;;;;;1.00;1.00;;;;;22.28;94.27;101258.66;4976442;28;45330;-74
2023/08/12 05:31:55;;;;;;;;;1.00;1.00;;;;;22.37;94.44;101271.63;4977927;28;45398;-74
2023/08/12 05:34:21;;;;;;;;;1.25;1.00;;;;;22.24;93.83;101249.88;5023783;28;45429;-74
2023/08/12 05:36:46;;;;;;;;;2.75;2.75;;;;;22.30;94.90;101248.56;4973175;28;46072;-74
2023/08/12 05:39:11;;;;;;;;;2.00;1.75;;;;;22.41;94.51;101262.25;4958125;28;45656;-74
2023/08/12 05:41:37;;;;;;;;;2.75;2.00;;;;;22.33;94.04;101253.78;4976002;28;45439;-74
2023/08/12 05:44:03;;;;;;;;;2.50;2.00;;;;;22.23;94.47;101237.25;4973115;28;45411;-74
2023/08/12 05:46:28;;;;;;;;;2.00;1.25;;;;;22.27;94.50;101259.63;4957933;28;45456;-74
2023/08/12 05:48:53;;;;;;;;;2.50;2.00;;;;;22.32;95.01;101268.34;4958043;28;45478;-74
2023/08/12 05:51:19;;;;;;;;;3.00;2.00;;;;;22.28;94.89;101259.56;4975219;28;45414;-74
2023/08/12 05:53:44;;;;;;;;;1.75;1.75;;;;;22.46;94.88;101289.13;4965662;28;45244;-74
2023/08/12 05:56:10;;;;;;;;;1.00;1.00;;;;;22.32;94.97;101257.47;4957830;28;46174;-74
2023/08/12 05:58:35;;;;;;;;;1.00;0.00;;;;;22.24;94.50;101246.28;4957921;28;45257;-74
2023/08/12 06:01:00;;;;;;;;;1.50;1.25;;;;;22.31;94.43;101248.47;4974436;28;45486;-74
2023/08/12 06:03:26;;;;;;;;;0.25;0.25;;;;;22.24;94.71;101236.28;4972673;28;45555;-73
2023/08/12 06:05:51;;;;;;;;;1.00;1.00;;;;;22.43;94.67;101264.84;4962496;28;45480;-74
2023/08/12 06:08:17;;;;;;;;;0.00;0.00;;;;;22.34;94.85;101250.09;4977374;28;45317;-74
2023/08/12 06:10:42;;;;;;;;;0.00;0.00;;;;;22.44;94.31;101267.47;4977277;28;45249;-74
2023/08/12 06:13:08;;;;;;;;;0.00;0.00;;;;;22.45;94.81;101276.47;4975737;28;45891;-74
2023/08/12 06:15:33;;;;;;;;;0.00;0.00;;;;;22.42;94.28;101266.72;4977114;28;45532;-72
2023/08/12 06:18:00;;;;;;;;;0.00;0.00;;;;;22.24;94.13;101238.13;4973419;28;45406;-72
2023/08/12 06:20:26;;;;;;;;;0.75;0.75;;;;;22.50;94.45;101277.00;4958948;28;45449;-72
2023/08/12 06:22:52;;;;;;;;;0.00;0.00;;;;;22.35;94.24;101246.38;4957566;28;45320;-72
2023/08/12 06:25:18;;;;;;;;;0.00;0.00;;;;;22.42;93.60;101255.84;4974337;28;47550;-72
2023/08/12 06:27:45;;;;;;;;;0.75;0.00;;;;;22.41;94.15;101250.50;4972675;28;45661;-72
2023/08/12 06:30:11;;;;;;;;;0.00;0.00;;;;;22.38;94.46;101247.00;4957564;28;45498;-72
2023/08/12 06:32:39;;;;;;;;;0.00;0.00;;;;;22.43;93.60;101253.97;4957549;28;45310;-72
2023/08/12 06:35:05;;;;;;;;;0.00;0.00;;;;;22.42;93.63;101249.50;5015875;28;46440;-72
2023/08/12 06:37:30;;;;;;;;;0.50;0.50;;;;;22.41;93.86;101248.66;4968056;28;45858;-72
2023/08/12 06:39:56;;;;;;;;;0.50;0.50;;;;;22.61;93.48;101285.25;4958364;28;45390;-72
2023/08/12 06:42:22;;;;;;;;;0.00;0.00;;;;;22.44;93.35;101253.00;4957405;28;45694;-72
2023/08/12 06:44:55;;;;;;;;;0.25;0.25;;;;;22.45;93.80;101258.31;4957265;28;45476;-72
2023/08/12 06:47:20;;;;;;;;;0.00;0.00;;;;;22.44;93.87;101255.72;4957109;28;45386;-72
2023/08/12 06:49:46;;;;;;;;;0.00;0.00;;;;;22.43;94.12;101259.41;4957368;28;45347;-72
2023/08/12 06:52:11;;;;;;;;;0.00;0.00;;;;;22.55;93.79;101275.69;4957116;28;45529;-72
2023/08/12 06:54:37;;;;;;;;;0.00;0.00;;;;;22.52;93.76;101264.16;4974513;28;47419;-72
2023/08/12 06:57:02;;;;;;;;;0.00;0.00;;;;;22.46;93.87;101251.03;4964377;28;45464;-72
2023/08/12 06:59:28;;;;;;;;;0.00;0.00;;;;;22.38;93.63;101246.16;4957171;28;45320;-72
2023/08/12 07:01:53;;;;;;;;;0.00;0.00;;;;;22.46;93.34;101267.34;4957124;28;45578;-72
2023/08/12 07:04:18;;;;;;;;;0.00;0.00;;;;;22.39;93.33;101258.78;4974332;28;46465;-72
2023/08/12 07:06:44;;;;;;;;;1.00;0.50;;;;;22.47;93.14;101267.25;4964543;28;45351;-72
2023/08/12 07:09:09;;;;;;;;;1.00;1.00;;;;;22.48;94.06;101268.97;4957100;28;45406;-71
2023/08/12 07:11:34;;;;;;;;;0.75;0.75;;;;;22.41;94.50;101262.25;4957676;28;45518;-71
2023/08/12 07:14:00;;;;;;;;;0.00;0.00;;;;;22.43;94.16;101271.16;4959763;28;46468;-71
2023/08/12 07:16:25;;;;;;;;;0.00;0.00;;;;;22.56;93.70;101295.59;4968889;28;45342;-72
2023/08/12 07:18:51;;;;;;;;;0.00;0.00;;;;;22.47;94.26;101278.13;4978338;28;45465;-72
2023/08/12 07:21:16;;;;;;;;;0.00;0.00;;;;;22.42;94.18;101279.44;4979273;28;45294;-71
2023/08/12 07:23:42;;;;;;;;;0.00;0.00;;;;;22.37;94.60;101267.06;4978956;28;45633;-71
2023/08/12 07:26:07;;;;;;;;;0.00;0.00;;;;;22.50;94.71;101293.34;4978013;28;45809;-71
2023/08/12 07:28:32;;;;;;;;;0.00;0.00;;;;;22.58;94.56;101310.81;4959373;28;45678;-74
2023/08/12 07:31:01;;;;;;;;;0.00;0.00;;;;;22.37;94.15;101277.94;4958463;28;45328;-74
2023/08/12 07:33:26;;;;;;;;;0.00;0.00;;;;;22.45;93.73;101293.66;4987162;28;45414;-74
2023/08/12 07:35:51;;;;;;;;;0.25;0.25;;;;;22.44;93.75;101296.53;5005811;27;45582;-74
2023/08/12 07:38:17;;;;;;;;;0.00;0.00;;;;;22.48;93.89;101309.75;4959697;28;45431;-74
2023/08/12 07:40:42;;;;;;;;;1.00;0.00;;;;;22.43;93.34;101309.22;4959760;28;45381;-74
2023/08/12 07:43:08;;;;;;;;;1.00;0.00;;;;;22.41;92.82;101327.53;4959362;28;46302;-74
2023/08/12 07:45:33;;;;;;;;;0.00;0.00;;;;;22.39;92.15;101332.22;4959715;28;45425;-74
2023/08/12 07:47:58;;;;;;;;;1.00;0.50;;;;;22.25;92.31;101322.28;4959528;28;45586;-74
2023/08/12 07:50:24;;;;;;;;;1.00;1.00;;;;;22.12;92.29;101308.72;4969896;28;45311;-74
2023/08/12 07:52:49;;;;;;;;;0.25;0.25;;;;;22.02;91.37;101316.69;4960679;28;45333;-74
2023/08/12 07:55:15;;;;;;;;;0.00;0.00;;;;;22.02;91.48;101332.13;4959502;28;45234;-74
2023/08/12 07:57:41;;;;;;;;;1.25;0.25;;;;;21.94;90.99;101324.50;4959425;28;45493;-74
2023/08/12 08:00:08;;;;;;;;;1.00;1.00;;;;;21.97;91.65;101340.59;4959368;28;45244;-74
2023/08/12 08:02:33;;;;;;;;;0.00;0.00;;;;;21.93;91.17;101338.19;4959086;28;46316;-74
2023/08/12 08:04:58;;;;;;;;;0.75;0.75;;;;;21.86;91.20;101335.06;4959353;28;45371;-74
2023/08/12 08:07:24;;;;;;;;;0.25;0.25;;;;;21.96;90.99;101354.28;4959092;28;45778;-74
2023/08/12 08:09:51;;;;;;;;;2.00;1.00;;;;;21.69;91.52;101317.22;4959384;28;45389;-74
2023/08/12 08:12:16;;;;;;;;;0.00;0.00;;;;;21.83;91.75;101349.75;4958827;28;45519;-74
2023/08/12 08:14:42;;;;;;;;;1.00;1.00;;;;;21.76;91.53;101340.25;4969382;28;45395;-74
2023/08/12 08:17:07;;;;;;;;;2.00;0.00;;;;;21.71;92.09;101337.00;4964903;28;45438;-74
2023/08/12 08:19:33;;;;;;;;;1.00;1.00;;;;;21.91;91.96;101373.63;4977448;28;45477;-74
2023/08/12 08:21:58;;;;;;;;;0.50;0.50;;;;;21.76;91.75;101359.28;4978019;28;45454;-74
2023/08/12 08:24:23;;;;;;;;;1.00;1.00;;;;;21.78;92.10;101357.31;4977312;28;45558;-74
2023/08/12 08:26:49;;;;;;;;;1.00;1.00;;;;;21.70;91.59;101351.56;4978621;28;45439;-74
2023/08/12 08:29:14;;;;;;;;;2.00;1.00;;;;;21.61;91.57;101334.03;4978503;28;45600;-74
2023/08/12 08:31:39;;;;;;;;;1.50;1.25;;;;;21.55;91.93;101326.34;4978396;28;45327;-74
2023/08/12 08:34:05;;;;;;;;;1.00;1.00;;;;;21.71;92.07;101363.31;5014539;28;45318;-74
2023/08/12 08:36:31;;;;;;;;;1.00;1.00;;;;;21.79;91.51;101380.81;4975415;28;45326;-74
2023/08/12 08:38:56;;;;;;;;;1.00;1.00;;;;;21.58;91.72;101349.69;4967725;28;45409;-74
2023/08/12 08:41:24;;;;;;;;;0.25;0.25;;;;;21.61;92.29;101360.34;4976841;28;46058;-74
2023/08/12 08:43:52;;;;;;;;;1.00;1.00;;;;;21.71;92.02;101376.88;4967932;28;45576;-74
2023/08/12 08:46:18;;;;;;;;;3.00;1.00;;;;;21.62;92.47;101359.38;4958894;28;45374;-74
2023/08/12 08:48:44;;;;;;;;;1.00;1.00;;;;;21.71;91.89;101385.91;4968213;28;45335;-74
2023/08/12 08:51:10;;;;;;;;;1.00;1.00;;;;;21.57;91.79;101356.13;4960674;28;45531;-74
2023/08/12 08:53:37;;;;;;;;;1.00;1.00;;;;;21.60;92.21;101359.50;4970158;28;45735;-74
2023/08/12 08:56:06;;;;;;;;;0.50;0.50;;;;;21.54;92.71;101351.75;4960699;28;46320;-74
2023/08/12 08:58:31;;;;;;;;;1.25;1.25;;;;;21.53;92.67;101346.44;4958627;28;45597;-74
2023/08/12 09:00:57;;;;;;;;;1.75;1.75;;;;;21.74;92.76;101368.53;4958485;28;45559;-74
2023/08/12 09:03:22;;;;;;;;;2.00;1.50;;;;;21.61;93.51;101352.19;4958570;28;45444;-74
2023/08/12 09:05:49;;;;;;;;;1.00;1.00;;;;;21.75;93.69;101376.56;4975046;28;45445;-74
2023/08/12 09:08:16;;;;;;;;;1.50;1.50;;;;;21.57;94.37;101328.97;4966925;28;45387;-74
2023/08/12 09:10:42;;;;;;;;;2.00;1.00;;;;;21.88;93.03;101383.88;4958285;28;46083;-74
2023/08/12 09:13:08;;;;;;;;;1.00;1.00;;;;;21.78;93.76;101367.31;4958306;28;45367;-74
2023/08/12 09:15:34;;;;;;;;;3.00;1.25;;;;;21.71;92.95;101350.56;4958411;28;45446;-74
2023/08/12 09:17:59;;;;;;;;;1.00;1.00;;;;;21.75;92.82;101359.38;5015238;28;46086;-74
2023/08/12 09:20:25;;;;;;;;;1.75;0.25;;;;;21.82;93.36;101358.00;4959435;28;45555;-74
2023/08/12 09:22:58;;;;;;;;;1.50;1.00;;;;;21.82;93.22;101352.56;4968530;28;45498;-74
2023/08/12 09:25:23;;;;;;;;;0.50;0.25;;;;;21.77;93.27;101344.72;4958916;28;45400;-74
2023/08/12 09:27:49;;;;;;;;;1.50;1.25;;;;;21.81;92.21;101354.38;4969504;28;45545;-74
2023/08/12 09:30:14;;;;;;;;;1.75;1.00;;;;;21.82;91.38;101361.56;4958815;28;45430;-74
2023/08/12 09:32:40;;;;;;;;;2.00;2.00;;;;;21.80;92.13;101349.94;4969319;28;45908;-74
2023/08/12 09:35:06;;;;;;;;;1.00;1.00;;;;;21.93;93.75;101360.81;5015774;28;45379;-74
2023/08/12 09:37:32;;;;;;;;;1.75;1.00;;;;;21.88;93.73;101346.66;4958059;28;45386;-74
2023/08/12 09:40:00;;;;;;;;;3.00;2.00;;;;;21.97;92.66;101351.47;4975605;28;47884;-74
2023/08/12 09:42:25;;;;;;;;;1.75;0.75;;;;;21.93;92.38;101344.50;4973138;28;45406;-74
2023/08/12 09:44:53;;;;;;;;;1.00;1.00;;;;;22.17;91.92;101385.41;4975639;28;45304;-74
2023/08/12 09:47:19;;;;;;;;;1.00;1.00;;;;;22.09;92.59;101370.63;4977557;28;45492;-74
2023/08/12 09:49:45;;;;;;;;;0.75;0.75;;;;;22.23;92.00;101384.06;4976188;28;46252;-74
2023/08/12 09:52:10;;;;;;;;;0.00;0.00;;;;;22.20;90.88;101377.03;4975958;28;45472;-74
2023/08/12 09:54:35;;;;;;;;;2.75;2.00;;;;;22.16;90.96;101367.34;4977637;28;45366;-74
2023/08/12 09:57:03;;;;;;;;;2.00;1.00;;;;;22.09;91.66;101357.88;4977527;28;45470;-74
2023/08/12 09:59:34;;;;;;;;;0.75;0.00;;;;;22.11;90.72;101364.06;4977176;28;45493;-74
2023/08/12 10:01:59;;;;;;;;;1.50;1.50;;;;;22.18;90.70;101386.25;4977285;28;45639;-74
2023/08/12 10:04:29;;;;;;;;;0.00;0.00;;;;;22.20;91.41;101382.47;4976297;28;45380;-74
2023/08/12 10:06:55;;;;;;;;;1.00;1.00;;;;;22.35;91.17;101410.44;4977102;28;45316;-74
2023/08/12 10:09:21;;;;;;;;;1.00;0.00;;;;;22.21;90.62;101389.63;4977299;28;46102;-74
2023/08/12 10:11:47;;;;;;;;;1.00;1.00;;;;;22.17;90.34;101373.66;4976985;28;45350;-74
2023/08/12 10:14:14;;;;;;;;;1.25;1.00;;;;;22.25;90.27;101378.53;4977354;28;45693;-74
2023/08/12 10:16:45;;;;;;;;;1.00;1.00;;;;;22.30;90.27;101374.56;4974964;28;45459;-74
2023/08/12 10:19:12;;;;;;;;;1.00;1.00;;;;;22.28;90.11;101362.00;4977030;28;46133;-74
2023/08/12 10:21:37;;;;;;;;;1.00;1.00;;;;;22.43;90.91;101387.25;4975582;28;45374;-74
2023/08/12 10:24:04;;;;;;;;;1.25;1.25;;;;;22.41;90.83;101373.75;4977403;28;45353;-74
2023/08/12 10:26:32;;;;;;;;;1.50;1.50;;;;;22.37;92.16;101364.97;4977008;28;45462;-74
2023/08/12 10:28:59;;;;;;;;;2.25;1.00;;;;;22.45;90.87;101367.09;4977111;28;45358;-74
2023/08/12 10:31:28;;;;;;;;;1.00;1.00;;;;;22.47;90.44;101361.56;4976841;28;45469;-74
2023/08/12 10:33:53;;;;;;;;;1.00;1.00;;;;;22.51;90.25;101376.69;5005006;28;45288;-74
2023/08/12 10:36:21;;;;;;;;;1.75;1.75;;;;;22.49;90.96;101363.19;4980875;28;45621;-74
2023/08/12 10:38:46;;;;;;;;;2.00;1.00;;;;;22.67;89.87;101390.91;4976933;28;45484;-75
2023/08/12 10:41:25;;;;;;;;;1.00;1.00;;;;;22.57;90.46;101366.22;4975583;28;45523;-74
2023/08/12 10:43:50;;;;;;;;;1.00;1.00;;;;;22.75;89.56;101391.22;4977026;28;45450;-74
2023/08/12 10:46:23;;;;;;;;;2.00;1.75;;;;;22.74;88.80;101377.72;4975363;28;45346;-74
2023/08/12 10:49:02;;;;;;;;;4.25;1.25;;;;;22.63;88.34;101362.19;4976614;28;45377;-74
2023/08/12 10:51:53;;;;;;;;;1.00;1.00;;;;;22.64;88.92;101354.91;4976668;28;45253;-74
2023/08/12 10:54:21;;;;;;;;;1.00;1.00;;;;;22.81;89.29;101380.88;4976796;28;45522;-74
2023/08/12 10:57:02;;;;;;;;;1.75;1.75;;;;;22.90;88.21;101380.16;4976883;28;45325;-74
2023/08/12 10:59:46;;;;;;;;;0.75;0.75;;;;;22.92;87.22;101376.38;4976543;28;45522;-75
2023/08/12 11:02:33;;;;;;;;;1.00;1.00;;;;;22.96;86.68;101376.13;4976356;28;45544;-74
2023/08/12 11:05:09;;;;;;;;;2.00;2.00;;;;;22.98;86.91;101385.06;4976765;28;45403;-74
2023/08/12 11:07:41;;;;;;;;;3.75;1.25;;;;;22.90;88.29;101364.72;4975223;28;45454;-74
2023/08/12 11:10:13;;;;;;;;;1.75;1.50;;;;;23.01;87.83;101380.25;4975046;28;47256;-74
2023/08/12 11:12:40;;;;;;;;;2.50;0.50;;;;;22.90;87.51;101351.13;4976259;28;45493;-74
2023/08/12 11:15:06;;;;;;;;;2.00;0.75;;;;;22.97;88.91;101350.63;4961919;28;45470;-74
2023/08/12 11:17:37;;;;;;;;;1.75;1.75;;;;;23.01;86.30;101352.16;4964563;28;45395;-74
2023/08/12 11:20:09;;;;;;;;;1.50;1.00;;;;;22.98;87.02;101345.06;4975960;28;45312;-74